Time;durP1;ratioP1;P1;durP2;ratioP2;P2;SDS_P1;SDS_P2;PMS_P1;PMS_P2;Temp;Humidity;BMP_temperature;BMP_pressure;BME280_temperature;BME280_humidity;BME280_pressure;Samples;Min_cycle;Max_cycle;Signal;HPM_P1;HPM_P2
2022/10/07 00:01:35;;;;;;;1.48;0.43;;;;;;;18.78;37.69;99616.97;4945451;28;20034;-95
2022/10/07 00:04:00;;;;;;;1.75;0.52;;;;;;;18.78;37.50;99611.56;4934147;29;20110;-95
2022/10/07 00:06:26;;;;;;;2.72;0.75;;;;;;;18.73;37.63;99611.53;4946300;28;20031;-95
2022/10/07 00:08:52;;;;;;;0.68;0.45;;;;;;;18.74;37.53;99613.16;4949402;28;20043;-95
2022/10/07 00:11:27;;;;;;;0.35;0.30;;;;;;;18.66;37.54;99606.38;4946880;28;20047;-96
2022/10/07 00:14:03;;;;;;;0.68;0.38;;;;;;;18.75;37.55;99621.03;4941897;29;20036;-95
2022/10/07 00:16:33;;;;;;;0.98;0.43;;;;;;;18.67;37.58;99613.41;4935874;29;20019;-95
2022/10/07 00:19:00;;;;;;;1.38;0.40;;;;;;;18.74;37.49;99613.16;4947337;28;20027;-95
2022/10/07 00:21:27;;;;;;;0.40;0.40;;;;;;;18.75;37.50;99625.63;4945708;29;20035;-94
2022/10/07 00:23:53;;;;;;;1.60;0.57;;;;;;;18.74;37.46;99616.69;4932240;28;20035;-95
2022/10/07 00:26:20;;;;;;;0.63;0.47;;;;;;;18.74;37.55;99630.22;4942183;28;20374;-95
2022/10/07 00:28:46;;;;;;;0.82;0.40;;;;;;;18.61;37.54;99597.38;4943996;28;20114;-95
2022/10/07 00:31:14;;;;;;;0.30;0.30;;;;;;;18.73;37.32;99617.78;4943362;29;20027;-95
2022/10/07 00:33:39;;;;;;;1.48;0.50;;;;;;;18.68;37.53;99603.38;4940064;29;20038;-95
2022/10/07 00:36:10;;;;;;;1.10;0.55;;;;;;;18.73;37.38;99622.34;4945861;29;20067;-95
2022/10/07 00:38:36;;;;;;;1.25;0.40;;;;;;;18.74;37.35;99624.00;4962846;28;20042;-95
2022/10/07 00:41:02;;;;;;;1.48;0.50;;;;;;;18.71;37.47;99632.63;4935555;29;20027;-95
2022/10/07 00:43:29;;;;;;;2.17;0.60;;;;;;;18.72;37.30;99631.56;4940027;28;20385;-95
2022/10/07 00:46:30;;;;;;;1.10;0.52;;;;;;;18.72;37.37;99626.16;4941723;28;20160;-96
2022/10/07 00:48:58;;;;;;;0.93;0.40;;;;;;;18.71;37.50;99613.69;4941625;29;20038;-95
2022/10/07 00:51:24;;;;;;;1.08;0.50;;;;;;;18.68;37.37;99625.03;4941610;29;20102;-95
2022/10/07 00:53:50;;;;;;;1.40;0.38;;;;;;;18.66;37.38;99627.19;4947066;28;20027;-95
2022/10/07 00:56:16;;;;;;;0.90;0.43;;;;;;;18.71;37.41;99638.03;4941002;29;20114;-95
2022/10/07 00:58:50;;;;;;;1.35;0.50;;;;;;;18.69;37.26;99643.72;4935892;28;20032;-96
2022/10/07 01:01:17;;;;;;;1.10;0.60;;;;;;;18.70;37.34;99636.44;4943403;29;20051;-96
2022/10/07 01:03:42;;;;;;;1.20;0.73;;;;;;;18.65;37.48;99629.06;4943513;28;20070;-96
2022/10/07 01:06:09;;;;;;;0.93;0.40;;;;;;;18.68;37.48;99633.16;4950480;29;20032;-96
2022/10/07 01:08:34;;;;;;;1.55;0.55;;;;;;;18.63;37.46;99616.91;4938452;28;20034;-96
2022/10/07 01:11:12;;;;;;;2.80;0.70;;;;;;;18.68;37.22;99630.44;4931453;29;20028;-96
2022/10/07 01:14:02;;;;;;;1.45;0.63;;;;;;;18.67;37.24;99629.63;4942609;28;20377;-96
2022/10/07 01:16:47;;;;;;;0.90;0.40;;;;;;;18.65;37.40;99637.19;4938177;29;20031;-96
2022/10/07 01:19:20;;;;;;;1.33;0.65;;;;;;;18.65;37.28;99626.38;4947963;29;20030;-96
2022/10/07 01:22:04;;;;;;;1.80;0.70;;;;;;;18.64;37.42;99623.91;4932797;29;20385;-96
2022/10/07 01:24:40;;;;;;;2.63;0.63;;;;;;;18.64;37.26;99623.91;4937381;29;20063;-96
2022/10/07 01:27:16;;;;;;;1.20;0.50;;;;;;;18.65;37.40;99628.28;4944101;28;20023;-96
2022/10/07 01:30:03;;;;;;;1.27;0.63;;;;;;;18.60;37.26;99628.22;4940493;29;20488;-96
2022/10/07 01:32:52;;;;;;;1.33;0.50;;;;;;;18.65;37.46;99633.69;4936560;29;20359;-96
2022/10/07 01:35:20;;;;;;;1.92;0.80;;;;;;;18.64;37.26;99635.56;4937278;29;20035;-96
2022/10/07 01:37:47;;;;;;;1.73;0.60;;;;;;;18.63;37.37;99639.34;4945400;29;20026;-95
2022/10/07 01:40:15;;;;;;;2.25;0.65;;;;;;;18.63;37.27;99643.97;4945087;28;20038;-96
2022/10/07 01:42:41;;;;;;;3.60;0.63;;;;;;;18.63;37.33;99652.06;4940742;28;20062;-96
2022/10/07 01:45:08;;;;;;;1.52;0.73;;;;;;;18.58;37.30;99636.59;4938141;28;20218;-95
2022/10/07 01:47:34;;;;;;;1.70;0.70;;;;;;;18.57;37.18;99634.97;4939417;29;20488;-96
2022/10/07 01:50:00;;;;;;;2.08;0.80;;;;;;;18.63;37.37;99643.97;4941456;29;20036;-95
2022/10/07 01:53:01;;;;;;;2.33;0.55;;;;;;;18.61;37.23;99652.34;4942984;28;20067;-95
2022/10/07 01:55:44;;;;;;;1.58;0.52;;;;;;;18.63;37.15;99643.97;4927785;29;20066;-96
2022/10/07 01:58:29;;;;;;;1.83;0.70;;;;;;;18.62;37.22;99636.91;4943846;29;20031;-95
2022/10/07 02:01:16;;;;;;;3.13;0.70;;;;;;;18.60;37.13;99634.44;4941734;28;20050;-96
2022/10/07 02:04:07;;;;;;;2.08;0.60;;;;;;;18.61;37.24;99646.09;4944505;29;20031;-94
2022/10/07 02:06:44;;;;;;;2.50;0.70;;;;;;;18.58;37.19;99644.72;4947258;29;20838;-95
2022/10/07 02:09:29;;;;;;;4.32;0.60;;;;;;;18.58;37.18;99645.53;4946754;29;20117;-95
2022/10/07 02:12:37;;;;;;;1.98;0.63;;;;;;;18.56;37.19;99638.75;4943741;28;20043;-95
2022/10/07 02:15:10;;;;;;;2.38;0.60;;;;;;;18.56;37.48;99647.69;4938278;28;20035;-95
2022/10/07 02:17:36;;;;;;;1.55;0.63;;;;;;;18.59;37.20;99643.63;4933729;29;20544;-95
2022/10/07 02:20:03;;;;;;;2.67;0.88;;;;;;;18.56;37.12;99650.41;4932633;29;20113;-94
2022/10/07 02:22:29;;;;;;;2.25;0.68;;;;;;;18.54;37.20;99646.28;4947206;29;20539;-94
2022/10/07 02:24:57;;;;;;;2.10;0.57;;;;;;;18.57;37.17;99654.75;4922144;29;20067;-95
2022/10/07 02:27:30;;;;;;;3.70;0.73;;;;;;;18.57;37.22;99652.03;4947392;28;20031;-95
2022/10/07 02:29:58;;;;;;;2.20;0.50;;;;;;;18.39;37.32;99641.59;4929067;29;20040;-94
2022/10/07 02:32:24;;;;;;;2.05;0.60;;;;;;;18.60;37.10;99666.94;4944423;29;20035;-94
2022/10/07 02:34:52;;;;;;;1.95;0.93;;;;;;;18.74;37.10;99662.69;4937630;29;20062;-94
2022/10/07 02:37:23;;;;;;;1.73;0.70;;;;;;;18.95;36.65;99663.72;4927067;29;20051;-95
2022/10/07 02:39:48;;;;;;;2.70;0.70;;;;;;;19.20;36.17;99670.34;4921747;29;20032;-95
2022/10/07 02:42:41;;;;;;;2.10;0.55;;;;;;;19.42;36.04;99672.06;4941630;29;20046;-95
2022/10/07 02:45:15;;;;;;;1.30;0.70;;;;;;;19.55;35.76;99660.75;4939274;28;20024;-94
2022/10/07 02:47:52;;;;;;;1.23;0.60;;;;;;;19.55;35.84;99659.94;4936543;28;20373;-95
2022/10/07 02:50:21;;;;;;;1.88;0.70;;;;;;;19.54;35.69;99661.03;4944867;29;20035;-96
2022/10/07 02:52:47;;;;;;;3.78;0.80;;;;;;;19.46;35.86;99662.34;4949276;29;20090;-95
2022/10/07 02:55:15;;;;;;;2.35;0.80;;;;;;;19.40;36.06;99668.81;4943873;29;20027;-95
2022/10/07 02:57:45;;;;;;;1.23;0.65;;;;;;;19.33;36.07;99675.31;4945924;29;20046;-95
2022/10/07 03:00:11;;;;;;;3.00;0.70;;;;;;;19.24;35.97;99657.91;4943317;29;20055;-96
2022/10/07 03:02:39;;;;;;;3.10;0.80;;;;;;;19.24;36.18;99666.03;4931501;29;20024;-94
2022/10/07 03:05:06;;;;;;;1.63;0.70;;;;;;;19.14;36.19;99666.81;4938829;28;20403;-94
2022/10/07 03:07:32;;;;;;;2.67;0.70;;;;;;;19.11;36.20;99669.22;4949746;28;20083;-95
2022/10/07 03:09:57;;;;;;;1.13;0.57;;;;;;;19.10;36.41;99678.41;4933823;29;20059;-95
2022/10/07 03:12:23;;;;;;;1.95;0.63;;;;;;;19.06;36.53;99685.44;4942749;29;20147;-95
2022/10/07 03:14:49;;;;;;;2.55;0.80;;;;;;;19.04;36.53;99687.56;4947884;29;20489;-95
2022/10/07 03:17:18;;;;;;;1.98;0.70;;;;;;;18.99;36.52;99684.81;4938274;28;20030;-95
2022/10/07 03:19:43;;;;;;;1.25;0.60;;;;;;;18.95;36.57;99679.13;4946204;28;20028;-95
2022/10/07 03:22:09;;;;;;;2.15;0.60;;;;;;;18.94;36.56;99683.72;4942668;29;20038;-95
2022/10/07 03:24:34;;;;;;;1.33;0.60;;;;;;;18.93;36.57;99694.81;4945698;28;20130;-96
2022/10/07 03:27:00;;;;;;;1.58;0.70;;;;;;;18.90;36.72;99689.91;4939267;28;20043;-96
2022/10/07 03:29:26;;;;;;;2.10;0.80;;;;;;;18.86;36.59;99708.56;4937217;29;20070;-95
2022/10/07 03:31:54;;;;;;;2.05;0.70;;;;;;;18.85;36.58;99701.53;4948401;28;20106;-96
2022/10/07 03:34:20;;;;;;;2.97;0.93;;;;;;;18.82;36.65;99707.47;4949227;28;20059;-96
2022/10/07 03:36:46;;;;;;;2.03;0.85;;;;;;;18.77;36.85;99691.16;4942922;28;20028;-96
2022/10/07 03:39:11;;;;;;;1.65;0.63;;;;;;;18.77;36.75;99705.50;4936443;29;20061;-95
2022/10/07 03:41:37;;;;;;;2.03;0.75;;;;;;;18.79;36.80;99707.13;4944535;28;20027;-96
2022/10/07 03:44:03;;;;;;;5.20;1.00;;;;;;;18.78;36.59;99706.31;4939808;29;20122;-96
2022/10/07 03:46:28;;;;;;;2.88;0.80;;;;;;;18.67;36.73;99677.53;4949838;29;20026;-96
2022/10/07 03:48:54;;;;;;;1.60;0.65;;;;;;;18.76;36.65;99689.50;4936910;29;20062;-96
2022/10/07 03:51:19;;;;;;;2.30;0.77;;;;;;;18.74;36.69;99694.38;4969841;28;20034;-96
2022/10/07 03:53:45;;;;;;;1.52;0.60;;;;;;;18.74;36.76;99699.78;4966644;28;20063;-96
2022/10/07 03:56:11;;;;;;;2.63;0.80;;;;;;;18.67;36.82;99704.59;4953737;29;20118;-96
2022/10/07 03:58:37;;;;;;;2.60;0.65;;;;;;;18.75;36.60;99702.25;4949302;29;20047;-96
2022/10/07 04:01:10;;;;;;;2.33;0.80;;;;;;;18.92;36.52;99704.84;4946187;28;20500;-96
2022/10/07 04:03:36;;;;;;;1.42;0.55;;;;;;;19.17;36.10;99713.41;4939487;28;20032;-96
2022/10/07 04:06:02;;;;;;;1.45;0.77;;;;;;;19.38;35.69;99711.63;4948763;28;20405;-96
2022/10/07 04:08:28;;;;;;;1.77;0.70;;;;;;;19.47;35.76;99702.75;4949902;28;20035;-96
2022/10/07 04:10:54;;;;;;;1.73;0.50;;;;;;;19.68;35.31;99719.91;4944646;29;20112;-96
2022/10/07 04:13:20;;;;;;;1.77;0.75;;;;;;;19.74;35.35;99717.22;4947289;29;20119;-96
2022/10/07 04:15:45;;;;;;;2.03;0.60;;;;;;;19.70;35.20;99723.16;4933573;29;20039;-96
2022/10/07 04:18:11;;;;;;;3.47;0.70;;;;;;;19.61;35.44;99730.19;4942851;28;20082;-96
2022/10/07 04:20:37;;;;;;;1.88;0.70;;;;;;;19.54;35.55;99720.66;4950321;28;20059;-96
2022/10/07 04:23:02;;;;;;;3.40;0.75;;;;;;;19.45;35.59;99731.16;4950070;28;20503;-96
2022/10/07 04:25:34;;;;;;;3.33;0.90;;;;;;;19.39;35.75;99727.63;4939262;29;20086;-96
2022/10/07 04:28:01;;;;;;;1.45;0.70;;;;;;;19.32;35.95;99727.03;4945591;29;20456;-96
2022/10/07 04:30:27;;;;;;;2.65;0.70;;;;;;;19.27;35.80;99727.81;4938454;29;20043;-96
2022/10/07 04:32:53;;;;;;;2.88;1.00;;;;;;;19.21;36.03;99731.56;4947274;29;20385;-96
2022/10/07 04:35:20;;;;;;;2.72;0.75;;;;;;;19.19;35.98;99738.31;4952811;28;20023;-96
2022/10/07 04:37:52;;;;;;;2.55;0.90;;;;;;;19.14;36.03;99731.81;4943385;29;20087;-96
2022/10/07 04:40:18;;;;;;;2.05;0.90;;;;;;;19.12;36.09;99738.53;4935573;29;20476;-95
2022/10/07 04:45:31;;;;;;;3.20;0.98;;;;;;;19.05;36.27;99743.38;4942552;29;20384;-95
2022/10/07 04:47:56;;;;;;;3.30;0.90;;;;;;;19.01;36.29;99742.28;4946226;29;21052;-95
2022/10/07 04:50:22;;;;;;;2.13;0.68;;;;;;;18.93;36.27;99749.78;4942871;28;20032;-95
2022/10/07 04:52:48;;;;;;;2.28;0.85;;;;;;;18.94;36.20;99754.13;4947527;28;20031;-96
2022/10/07 04:55:13;;;;;;;2.92;0.90;;;;;;;18.92;36.23;99748.16;4941361;28;20396;-95
2022/10/07 04:57:39;;;;;;;1.77;0.70;;;;;;;18.90;36.23;99752.19;4941362;28;20022;-96
2022/10/07 05:00:05;;;;;;;1.80;0.80;;;;;;;18.88;36.39;99760.56;4943094;29;20030;-96
2022/10/07 05:02:31;;;;;;;2.22;0.80;;;;;;;18.86;36.29;99762.72;4938484;28;20023;-95
2022/10/07 05:04:57;;;;;;;0.95;0.70;;;;;;;18.84;36.32;99764.88;4938688;28;20066;-95
2022/10/07 05:07:22;;;;;;;2.70;0.80;;;;;;;18.83;36.48;99767.84;4945829;29;20059;-95
2022/10/07 05:09:48;;;;;;;3.00;0.77;;;;;;;18.81;36.39;99776.16;4944576;29;20046;-95
2022/10/07 05:12:16;;;;;;;1.58;0.77;;;;;;;18.81;36.50;99773.47;4942444;28;20062;-95
2022/10/07 05:14:42;;;;;;;3.22;0.80;;;;;;;18.80;36.39;99779.13;4944650;29;20075;-95
2022/10/07 05:17:08;;;;;;;2.60;0.95;;;;;;;18.78;36.51;99784.81;4948577;29;20038;-95
2022/10/07 05:19:34;;;;;;;2.97;0.90;;;;;;;18.74;36.50;99776.38;4936367;29;20031;-95
2022/10/07 05:22:00;;;;;;;3.58;0.90;;;;;;;18.75;36.63;99782.63;4931328;29;20400;-96
2022/10/07 05:24:26;;;;;;;2.63;0.95;;;;;;;18.94;36.10;99792.03;4940203;28;20035;-96
2022/10/07 05:26:51;;;;;;;2.15;0.73;;;;;;;19.16;35.95;99791.09;4944825;29;20037;-95
2022/10/07 05:29:17;;;;;;;1.90;0.80;;;;;;;19.44;35.38;99784.56;4951690;28;20035;-95
2022/10/07 05:31:42;;;;;;;3.70;0.80;;;;;;;19.67;35.10;99785.22;4944662;28;20036;-95
2022/10/07 05:34:08;;;;;;;2.45;0.90;;;;;;;19.81;35.02;99794.53;4941391;29;20032;-95
2022/10/07 05:36:34;;;;;;;2.10;0.80;;;;;;;19.86;34.79;99791.06;4943729;29;20031;-95
2022/10/07 05:38:59;;;;;;;2.65;0.88;;;;;;;19.84;34.89;99793.22;4948268;29;20067;-95
2022/10/07 05:41:27;;;;;;;5.97;1.25;;;;;;;19.75;34.94;99792.91;4941113;29;20055;-94
2022/10/07 05:43:53;;;;;;;2.50;0.90;;;;;;;19.66;35.18;99797.97;4944990;28;20125;-95
2022/10/07 05:46:22;;;;;;;1.92;0.70;;;;;;;19.57;35.18;99794.09;4946778;28;20476;-95
2022/10/07 05:48:50;;;;;;;4.18;1.27;;;;;;;19.42;35.39;99791.28;4941080;29;20035;-95
2022/10/07 05:51:17;;;;;;;2.45;1.00;;;;;;;19.44;35.48;99805.44;4947953;28;20071;-95
2022/10/07 05:53:45;;;;;;;3.08;0.77;;;;;;;19.38;35.67;99811.88;4940999;28;20028;-96
2022/10/07 05:56:14;;;;;;;2.40;0.98;;;;;;;19.33;35.50;99812.63;4943886;29;20024;-96
2022/10/07 05:58:39;;;;;;;3.53;1.23;;;;;;;19.12;35.90;99804.34;4947756;29;20031;-96
2022/10/07 06:01:06;;;;;;;4.07;1.23;;;;;;;19.21;35.62;99818.25;4942678;29;20540;-95
2022/10/07 06:03:32;;;;;;;5.57;0.93;;;;;;;19.18;35.94;99828.78;4940683;29;20331;-96
2022/10/07 06:05:58;;;;;;;2.88;0.88;;;;;;;19.15;35.79;99832.84;4941111;28;20485;-96
2022/10/07 06:08:24;;;;;;;4.07;0.93;;;;;;;19.12;35.86;99836.03;4947125;28;20121;-95
2022/10/07 06:13:34;;;;;;;4.05;0.95;;;;;;;19.00;35.94;99835.41;4935107;29;20147;-96
2022/10/07 06:16:04;;;;;;;4.30;0.88;;;;;;;19.01;35.96;99850.59;4934290;29;20087;-96
2022/10/07 06:18:29;;;;;;;2.50;1.08;;;;;;;18.98;35.94;99849.19;4940896;29;20031;-96
2022/10/07 06:20:56;;;;;;;2.97;0.98;;;;;;;18.92;36.06;99842.09;4944383;28;20450;-95
2022/10/07 06:23:22;;;;;;;3.53;1.15;;;;;;;18.88;36.14;99847.19;4944593;28;20027;-95
2022/10/07 06:25:55;;;;;;;2.78;1.05;;;;;;;18.89;36.07;99854.25;4946707;29;20094;-95
2022/10/07 06:28:21;;;;;;;2.13;0.80;;;;;;;18.88;36.14;99874.28;4937371;28;20499;-95
2022/10/07 06:30:47;;;;;;;5.82;1.10;;;;;;;18.88;36.25;99884.28;4942957;28;20059;-96
2022/10/07 06:33:13;;;;;;;2.33;0.95;;;;;;;18.81;36.05;99872.81;4947856;28;20047;-95
2022/10/07 06:35:38;;;;;;;2.85;1.05;;;;;;;18.84;36.12;99881.28;4956465;28;20042;-96
2022/10/07 06:45:36;;;;;;;2.83;0.93;;;;;;;18.43;36.22;99856.44;4936683;29;20075;-96
2022/10/07 06:50:33;;;;;;;2.50;0.90;;;;;;;18.38;36.39;99845.53;4924921;29;20263;-96
2022/10/07 08:02:13;;;;;;;4.80;1.20;;;;;;;18.87;36.10;99921.38;4995812;23;20089;-96
2022/10/07 08:04:39;;;;;;;2.45;1.10;;;;;;;18.88;36.21;99933.84;4959813;28;20136;-96
2022/10/07 08:07:05;;;;;;;4.38;1.25;;;;;;;18.95;36.27;99947.19;4959925;28;20395;-96
2022/10/07 08:09:32;;;;;;;4.20;0.90;;;;;;;18.99;36.32;99955.59;4974314;28;20144;-96
2022/10/07 08:12:01;;;;;;;2.67;0.93;;;;;;;18.80;36.39;99941.56;4962465;28;20033;-96
2022/10/07 08:14:28;;;;;;;4.40;1.20;;;;;;;18.51;36.35;99885.75;4971366;28;20026;-96
2022/10/07 08:17:14;;;;;;;3.28;1.10;;;;;;;18.52;36.47;99909.06;4981735;28;20069;-96
2022/10/07 08:23:20;;;;;;;2.42;0.80;;;;;;;18.55;36.40;99913.94;5015279;28;20031;-96
2022/10/07 09:31:31;;;;;;;3.40;1.25;;;;;;;18.64;37.07;99970.34;4743742;26;20042;-96
2022/10/07 12:02:17;;;;;;;3.88;1.20;;;;;;;19.14;38.09;99953.91;4956624;29;20043;-96
2022/10/07 12:46:11;;;;;;;3.22;1.02;;;;;;;19.21;38.27;99945.56;4626186;23;20109;-95
2022/10/07 19:17:03;;;;;;;4.95;1.13;;;;;;;19.24;39.80;99739.16;1425414;26;20055;-96
2022/10/07 19:32:25;;;;;;;;;;;;;;;19.26;39.75;99734.31;4989583;28;20049;-96
2022/10/07 19:34:56;;;;;;;2.67;1.00;;;;;;;19.15;39.84;99721.78;4954705;28;19925;-96
2022/10/07 19:37:25;;;;;;;3.80;1.42;;;;;;;18.80;40.17;99674.41;4979204;28;20026;-96
2022/10/07 19:39:56;;;;;;;4.68;1.30;;;;;;;18.98;39.93;99700.25;4955307;28;20088;-96
2022/10/07 19:42:28;;;;;;;3.85;1.20;;;;;;;18.79;39.81;99661.94;4956360;28;20232;-96
2022/10/07 19:44:57;;;;;;;3.47;1.10;;;;;;;19.19;39.88;99725.59;4953840;28;20041;-96
2022/10/07 19:47:25;;;;;;;4.78;1.55;;;;;;;19.03;39.91;99707.63;4971584;28;20023;-96
2022/10/07 19:49:54;;;;;;;3.95;1.25;;;;;;;18.94;39.97;99678.31;4971069;28;20039;-96
2022/10/07 19:52:20;;;;;;;5.10;1.40;;;;;;;19.19;39.90;99724.78;4964044;28;20030;-95
2022/10/07 19:55:09;;;;;;;4.43;1.13;;;;;;;19.24;39.82;99736.47;4957401;28;20103;-96
2022/10/07 19:57:38;;;;;;;4.32;1.38;;;;;;;18.93;39.87;99692.91;5003542;28;20026;-96
2022/10/07 20:00:05;;;;;;;5.70;1.48;;;;;;;18.97;39.66;99697.81;4976259;28;20403;-96
2022/10/07 20:02:45;;;;;;;5.32;1.40;;;;;;;18.88;39.56;99676.63;4960639;28;20034;-96
2022/10/07 20:05:14;;;;;;;3.88;1.17;;;;;;;18.73;39.72;99649.41;4966076;28;20087;-96
2022/10/07 20:07:40;;;;;;;2.75;0.90;;;;;;;18.87;39.89;99680.44;4962800;28;20598;-96
2022/10/07 20:10:10;;;;;;;4.05;1.13;;;;;;;19.02;39.75;99685.13;4958690;28;20030;-96
2022/10/07 20:15:12;;;;;;;3.03;1.08;;;;;;;19.22;39.84;99724.28;5003735;23;20050;-96
2022/10/07 20:17:44;;;;;;;2.67;1.02;;;;;;;18.84;39.55;99678.25;5018287;23;22154;-96
2022/10/07 20:20:13;;;;;;;3.20;1.20;;;;;;;18.93;39.76;99692.09;5031191;23;20046;-96
2022/10/07 20:22:39;;;;;;;4.45;1.27;;;;;;;18.86;39.78;99676.09;4986665;28;20022;-96
2022/10/07 20:25:07;;;;;;;4.38;1.40;;;;;;;19.11;39.75;99704.44;4975519;28;20069;-96
2022/10/07 20:27:41;;;;;;;3.63;1.50;;;;;;;18.98;39.65;99685.91;4990152;28;20665;-96
2022/10/07 20:30:23;;;;;;;3.20;1.00;;;;;;;19.02;39.87;99679.69;4988513;28;20505;-96
2022/10/07 20:32:58;;;;;;;4.53;1.00;;;;;;;18.87;39.80;99666.91;4993514;28;20031;-96
2022/10/07 20:35:29;;;;;;;3.63;1.10;;;;;;;18.86;39.82;99676.09;4991916;28;20090;-96
2022/10/07 20:37:55;;;;;;;3.22;1.50;;;;;;;18.90;39.62;99666.38;4992334;28;20038;-96
2022/10/07 20:43:07;;;;;;;7.32;1.23;;;;;;;19.10;39.99;99713.63;4973912;28;20093;-96
2022/10/07 20:45:54;;;;;;;2.60;1.00;;;;;;;18.84;40.10;99662.00;4984092;28;20519;-96
2022/10/07 20:48:27;;;;;;;5.57;1.52;;;;;;;18.81;40.19;99673.31;4982270;28;20269;-96
2022/10/07 20:50:59;;;;;;;5.20;1.00;;;;;;;18.92;40.00;99680.47;4996223;28;20034;-96
2022/10/07 20:53:24;;;;;;;5.03;1.38;;;;;;;18.78;40.09;99652.16;4989597;28;20479;-96
2022/10/07 20:55:50;;;;;;;2.72;1.20;;;;;;;18.91;39.91;99684.25;4976236;28;20050;-96
2022/10/07 21:00:43;;;;;;;4.50;1.17;;;;;;;19.17;40.14;99722.31;4957697;28;20047;-96
2022/10/07 21:03:09;;;;;;;5.18;1.42;;;;;;;19.18;40.37;99723.97;4934450;29;20058;-96
2022/10/07 21:08:07;;;;;;;4.38;1.33;;;;;;;18.83;39.78;99671.19;4937719;28;20120;-96
2022/10/07 21:10:33;;;;;;;3.63;1.33;;;;;;;18.83;40.06;99673.88;5028885;23;20046;-96
2022/10/07 21:12:59;;;;;;;4.82;1.23;;;;;;;18.85;39.93;99668.22;4998714;28;20045;-96
2022/10/07 21:15:28;;;;;;;3.85;1.10;;;;;;;18.83;39.99;99664.97;5046811;23;20058;-96
2022/10/07 21:20:30;;;;;;;5.30;1.45;;;;;;;18.82;39.95;99666.03;2368033;23;20058;-96
2022/10/07 21:23:03;;;;;;;3.95;1.50;;;;;;;18.93;39.89;99659.63;5020486;28;20037;-96
2022/10/07 21:25:36;;;;;;;5.60;1.40;;;;;;;18.85;39.91;99663.63;5022726;28;20025;-96
2022/10/07 21:28:03;;;;;;;3.58;1.17;;;;;;;18.79;40.00;99642.97;5031671;28;20058;-96
2022/10/07 21:45:58;;;;;;;3.25;1.10;;;;;;;18.86;40.07;99632.75;4358601;23;20013;-95
